createdAt,value
2018-03-11T00:00:41.298Z,10.20
2018-03-11T00:02:34.585Z,9.20
2018-03-11T00:03:34.504Z,10.80
2018-03-11T00:05:27.776Z,11.90
2018-03-11T00:06:27.711Z,13.50
2018-03-11T00:08:21.000Z,10.40
2018-03-11T00:09:20.918Z,9.30
2018-03-11T00:11:14.297Z,11.90
2018-03-11T00:12:14.126Z,11.60
2018-03-11T00:14:07.414Z,9.80
2018-03-11T00:15:07.332Z,9.60
2018-03-11T00:17:00.593Z,10.00
2018-03-11T00:18:00.529Z,10.40
2018-03-11T00:19:53.807Z,10.30
2018-03-11T00:20:53.724Z,10.40
2018-03-11T00:22:47.014Z,9.70
2018-03-11T00:23:46.932Z,9.70
2018-03-11T00:25:40.204Z,9.50
2018-03-11T00:26:40.139Z,10.20
2018-03-11T00:28:33.427Z,10.70
2018-03-11T00:29:33.344Z,10.70
2018-03-11T00:31:26.612Z,10.90
2018-03-11T00:32:26.540Z,10.50
2018-03-11T00:34:19.829Z,10.90
2018-03-11T00:35:19.747Z,11.90
2018-03-11T00:37:13.128Z,11.40
2018-03-11T00:38:12.953Z,12.30
2018-03-11T00:40:06.235Z,10.40
2018-03-11T00:41:06.150Z,10.90
2018-03-11T00:42:59.546Z,11.70
2018-03-11T00:43:59.357Z,12.20
2018-03-11T00:45:52.621Z,10.80
2018-03-11T00:46:52.554Z,11.00
2018-03-11T00:48:45.842Z,11.70
2018-03-11T00:49:45.762Z,16.20
2018-03-11T00:51:39.022Z,10.40
2018-03-11T00:52:38.958Z,11.40
2018-03-11T00:54:32.245Z,10.80
2018-03-11T00:55:32.165Z,10.60
2018-03-11T00:57:25.541Z,10.80
2018-03-11T00:58:25.372Z,10.20
2018-03-11T01:00:18.775Z,12.70
2018-03-11T01:01:18.578Z,11.30
2018-03-11T01:03:11.867Z,10.20
2018-03-11T01:04:11.785Z,12.10
2018-03-11T01:06:05.056Z,11.50
2018-03-11T01:07:04.994Z,12.10
2018-03-11T01:08:58.316Z,11.30
2018-03-11T01:09:58.232Z,11.20
2018-03-11T01:11:51.504Z,11.30
2018-03-11T01:12:51.440Z,10.50
2018-03-11T01:14:44.734Z,12.60
2018-03-11T01:15:44.648Z,11.00
2018-03-11T01:17:37.919Z,10.40
2018-03-11T01:18:37.854Z,12.60
2018-03-11T01:20:31.143Z,10.40
2018-03-11T01:21:31.062Z,10.90
2018-03-11T01:23:24.457Z,11.30
2018-03-11T01:24:24.269Z,12.00
2018-03-11T01:26:17.542Z,11.70
2018-03-11T01:27:17.478Z,12.00
2018-03-11T01:29:10.766Z,11.90
2018-03-11T01:30:10.685Z,12.20
2018-03-11T01:32:03.957Z,11.60
2018-03-11T01:33:03.894Z,9.60
2018-03-11T01:34:57.175Z,11.40
2018-03-11T01:35:57.089Z,10.70
2018-03-11T01:37:50.361Z,11.50
2018-03-11T01:38:50.298Z,11.60
2018-03-11T01:40:43.578Z,11.00
2018-03-11T01:41:43.495Z,10.90
2018-03-11T01:43:36.891Z,11.40
2018-03-11T01:44:36.700Z,12.40
2018-03-11T01:46:29.964Z,11.60
2018-03-11T01:47:29.899Z,11.00
2018-03-11T01:49:23.179Z,11.80
2018-03-11T01:50:23.100Z,11.20
2018-03-11T01:52:16.368Z,10.10
2018-03-11T01:53:16.302Z,12.60
2018-03-11T01:55:09.581Z,12.50
2018-03-11T01:56:09.498Z,14.40
2018-03-11T01:58:02.768Z,12.80
2018-03-11T01:59:02.703Z,13.60
2018-03-11T02:00:55.992Z,13.70
2018-03-11T02:01:55.909Z,13.70
2018-03-11T02:03:49.302Z,12.70
2018-03-11T02:04:49.112Z,13.60
2018-03-11T02:06:42.376Z,12.40
2018-03-11T02:07:42.310Z,13.40
2018-03-11T02:09:35.598Z,15.50
2018-03-11T02:10:35.513Z,15.60
2018-03-11T02:12:28.784Z,14.00
2018-03-11T02:13:28.717Z,15.80
2018-03-11T02:15:22.116Z,17.70
2018-03-11T02:16:21.920Z,17.00
2018-03-11T02:18:15.296Z,18.40
2018-03-11T02:19:15.124Z,18.50
2018-03-11T02:21:08.520Z,16.90
2018-03-11T02:22:08.328Z,17.50
2018-03-11T02:24:01.620Z,17.30
2018-03-11T02:25:01.534Z,18.30
2018-03-11T02:26:54.928Z,15.80
2018-03-11T02:27:54.728Z,17.70
2018-03-11T02:29:48.103Z,15.50
2018-03-11T02:30:47.930Z,15.50
2018-03-11T02:32:41.215Z,16.80
2018-03-11T02:33:41.134Z,18.20
2018-03-11T02:35:34.420Z,18.50
2018-03-11T02:36:34.342Z,18.70
2018-03-11T02:38:27.603Z,18.70
2018-03-11T02:39:27.537Z,17.90
2018-03-11T02:41:20.930Z,19.90
2018-03-11T02:42:20.744Z,17.10
2018-03-11T02:44:14.015Z,15.10
2018-03-11T02:45:13.930Z,15.80
2018-03-11T02:47:07.192Z,16.80
2018-03-11T02:48:07.126Z,19.90
2018-03-11T02:50:00.520Z,18.20
2018-03-11T02:51:00.330Z,18.70
2018-03-11T02:52:53.595Z,17.10
2018-03-11T02:53:53.527Z,15.60
2018-03-11T02:55:46.815Z,20.40
2018-03-11T02:56:46.731Z,18.80
2018-03-11T02:58:39.988Z,18.50
2018-03-11T02:59:39.921Z,16.50
2018-03-11T03:01:33.207Z,18.00
2018-03-11T03:02:33.122Z,16.90
2018-03-11T03:04:26.517Z,16.90
2018-03-11T03:05:26.323Z,18.40
2018-03-11T03:07:19.585Z,20.10
2018-03-11T03:08:19.516Z,17.90
2018-03-11T03:10:12.791Z,18.60
2018-03-11T03:11:12.708Z,20.70
2018-03-11T03:13:06.083Z,20.10
2018-03-11T03:14:05.922Z,19.10
2018-03-11T03:15:59.200Z,19.20
2018-03-11T03:16:59.111Z,21.40
2018-03-11T03:18:52.486Z,23.30
2018-03-11T03:19:52.310Z,21.00
2018-03-11T03:21:45.707Z,18.90
2018-03-11T03:22:45.517Z,18.50
2018-03-11T03:24:38.804Z,19.00
2018-03-11T03:25:38.717Z,19.90
2018-03-11T03:27:32.092Z,20.00
2018-03-11T03:28:31.916Z,21.40
2018-03-11T03:30:25.311Z,19.70
2018-03-11T03:31:25.117Z,22.20
2018-03-11T03:33:18.388Z,20.60
2018-03-11T03:34:18.320Z,22.20
2018-03-11T03:36:11.607Z,19.90
2018-03-11T03:37:11.522Z,20.30
2018-03-11T03:39:04.893Z,22.40
2018-03-11T03:40:04.722Z,21.50
2018-03-11T03:41:58.008Z,21.10
2018-03-11T03:42:57.922Z,21.10
2018-03-11T03:44:51.226Z,19.70
2018-03-11T03:45:51.124Z,20.20
2018-03-11T03:47:44.392Z,24.00
2018-03-11T03:48:44.328Z,23.30
2018-03-11T03:50:37.718Z,24.20
2018-03-11T03:51:37.524Z,23.30
2018-03-11T03:53:30.782Z,22.20
2018-03-11T03:54:30.715Z,24.30
2018-03-11T03:56:23.991Z,23.10
2018-03-11T03:57:23.906Z,23.80
2018-03-11T03:59:17.175Z,23.90
2018-03-11T04:00:17.108Z,23.60
2018-03-11T04:02:10.383Z,23.20
2018-03-11T04:03:10.297Z,21.40
2018-03-11T04:05:03.582Z,23.10
2018-03-11T04:06:03.502Z,21.90
2018-03-11T04:07:56.876Z,23.40
2018-03-11T04:08:56.711Z,21.50
2018-03-11T04:10:49.991Z,24.70
2018-03-11T04:11:49.906Z,25.50
2018-03-11T04:13:43.280Z,25.00
2018-03-11T04:14:43.107Z,26.30
2018-03-11T04:16:36.384Z,24.70
2018-03-11T04:17:36.297Z,24.00
2018-03-11T04:19:29.564Z,24.80
2018-03-11T04:20:29.496Z,24.30
2018-03-11T04:22:22.780Z,23.60
2018-03-11T04:23:22.696Z,26.50
2018-03-11T04:25:15.980Z,24.60
2018-03-11T04:26:15.895Z,23.70
2018-03-11T04:28:09.160Z,23.70
2018-03-11T04:29:09.093Z,23.40
2018-03-11T04:31:02.381Z,22.80
2018-03-11T04:32:02.292Z,23.20
2018-03-11T04:33:55.561Z,24.40
2018-03-11T04:34:55.494Z,24.60
2018-03-11T04:36:48.885Z,22.70
2018-03-11T04:37:48.683Z,22.90
2018-03-11T04:39:42.052Z,26.60
2018-03-11T04:40:41.884Z,24.60
2018-03-11T04:42:35.165Z,26.00
2018-03-11T04:43:35.083Z,24.30
2018-03-11T04:45:28.365Z,21.50
2018-03-11T04:46:28.320Z,22.00
2018-03-11T04:48:21.544Z,23.90
2018-03-11T04:49:21.478Z,26.50
2018-03-11T04:51:14.872Z,24.50
2018-03-11T04:52:14.676Z,27.10
2018-03-11T04:54:08.051Z,22.10
2018-03-11T04:55:07.873Z,24.60
2018-03-11T04:57:01.266Z,24.40
2018-03-11T04:58:01.062Z,24.40
2018-03-11T04:59:54.328Z,24.40
2018-03-11T05:00:54.261Z,24.00
2018-03-11T05:02:47.544Z,23.10
2018-03-11T05:03:47.460Z,25.00
2018-03-11T05:05:40.746Z,25.10
2018-03-11T05:06:40.657Z,22.80
2018-03-11T05:08:33.923Z,26.40
2018-03-11T05:09:33.854Z,25.40
2018-03-11T05:11:27.139Z,27.40
2018-03-11T05:12:27.052Z,28.60
2018-03-11T05:14:20.318Z,29.00
2018-03-11T05:15:20.249Z,28.30
2018-03-11T05:17:13.642Z,25.30
2018-03-11T05:18:13.440Z,26.30
2018-03-11T05:20:06.702Z,25.90
2018-03-11T05:21:06.638Z,27.70
2018-03-11T05:22:59.922Z,27.10
2018-03-11T05:23:59.836Z,28.40
2018-03-11T05:25:53.117Z,30.10
2018-03-11T05:26:53.078Z,32.20
2018-03-11T05:28:46.298Z,24.80
2018-03-11T05:29:46.229Z,26.70
2018-03-11T05:31:39.513Z,26.20
2018-03-11T05:32:39.428Z,26.20
2018-03-11T05:34:32.692Z,25.20
2018-03-11T05:35:32.625Z,26.90
2018-03-11T05:37:25.909Z,27.50
2018-03-11T05:38:25.824Z,25.80
2018-03-11T05:40:19.090Z,27.80
2018-03-11T05:41:19.021Z,26.30
2018-03-11T05:43:12.315Z,24.80
2018-03-11T05:44:12.228Z,27.10
2018-03-11T05:46:05.619Z,28.10
2018-03-11T05:47:05.424Z,26.30
2018-03-11T05:48:58.689Z,24.50
2018-03-11T05:49:58.621Z,29.30
2018-03-11T05:51:52.014Z,27.20
2018-03-11T05:52:51.818Z,24.20
2018-03-11T05:54:45.193Z,24.70
2018-03-11T05:55:45.022Z,27.00
2018-03-11T05:57:38.409Z,24.20
2018-03-11T05:58:38.228Z,25.20
2018-03-11T06:00:31.602Z,24.40
2018-03-11T06:01:31.425Z,22.80
2018-03-11T06:03:24.707Z,25.60
2018-03-11T06:04:24.625Z,23.10
2018-03-11T06:06:18.012Z,25.60
2018-03-11T06:07:17.817Z,26.00
2018-03-11T06:09:11.083Z,25.30
2018-03-11T06:10:11.014Z,27.30
2018-03-11T06:12:04.313Z,24.50
2018-03-11T06:13:04.229Z,22.00
2018-03-11T06:14:57.493Z,22.90
2018-03-11T06:15:57.425Z,21.70
2018-03-11T06:17:50.818Z,24.90
2018-03-11T06:18:50.620Z,25.20
2018-03-11T06:20:43.995Z,22.20
2018-03-11T06:21:43.819Z,23.10
2018-03-11T06:23:37.103Z,23.80
2018-03-11T06:24:37.014Z,21.50
2018-03-11T06:26:30.349Z,23.40
2018-03-11T06:27:30.203Z,21.60
2018-03-11T06:29:23.469Z,25.40
2018-03-11T06:30:23.400Z,23.50
2018-03-11T06:32:16.790Z,23.00
2018-03-11T06:33:16.601Z,22.10
2018-03-11T06:35:09.862Z,20.40
2018-03-11T06:36:09.791Z,25.20
2018-03-11T06:38:03.183Z,19.10
2018-03-11T06:39:02.988Z,22.20
2018-03-11T06:40:56.296Z,21.20
2018-03-11T06:41:56.226Z,19.80
2018-03-11T06:43:49.511Z,22.40
2018-03-11T06:44:49.425Z,20.00
2018-03-11T06:46:42.700Z,17.70
2018-03-11T06:47:42.614Z,21.60
2018-03-11T06:49:35.880Z,22.00
2018-03-11T06:50:35.810Z,18.50
2018-03-11T06:52:29.205Z,17.20
2018-03-11T06:53:29.011Z,19.00
2018-03-11T06:55:22.382Z,19.10
2018-03-11T06:56:22.235Z,19.20
2018-03-11T06:58:15.514Z,17.80
2018-03-11T06:59:15.427Z,19.50
2018-03-11T07:01:08.801Z,17.20
2018-03-11T07:02:08.624Z,17.90
2018-03-11T07:04:01.907Z,16.60
2018-03-11T07:05:01.821Z,18.00
2018-03-11T07:06:55.096Z,18.60
2018-03-11T07:07:55.011Z,18.50
2018-03-11T07:09:48.384Z,18.10
2018-03-11T07:10:48.267Z,16.80
2018-03-11T07:12:41.517Z,16.10
2018-03-11T07:13:41.425Z,15.00
2018-03-11T07:15:34.695Z,15.50
2018-03-11T07:16:34.624Z,14.50
2018-03-11T07:18:28.015Z,16.50
2018-03-11T07:19:27.823Z,16.70
2018-03-11T07:21:21.092Z,14.10
2018-03-11T07:22:21.021Z,14.50
2018-03-11T07:24:14.318Z,14.00
2018-03-11T07:25:14.230Z,14.80
2018-03-11T07:27:07.514Z,13.40
2018-03-11T07:28:07.427Z,15.80
2018-03-11T07:30:00.804Z,15.10
2018-03-11T07:31:00.627Z,13.50
2018-03-11T07:32:53.912Z,12.90
2018-03-11T07:33:53.827Z,13.80
2018-03-11T07:35:47.091Z,13.70
2018-03-11T07:36:47.024Z,14.00
2018-03-11T07:38:40.316Z,12.20
2018-03-11T07:39:40.228Z,12.90
2018-03-11T07:41:33.496Z,12.60
2018-03-11T07:42:33.426Z,11.80
2018-03-11T07:44:26.712Z,12.20
2018-03-11T07:45:26.628Z,13.20
2018-03-11T07:47:19.910Z,12.60
2018-03-11T07:48:19.826Z,12.50
2018-03-11T07:50:13.092Z,13.00
2018-03-11T07:51:13.024Z,14.60
2018-03-11T07:53:06.314Z,11.90
2018-03-11T07:54:06.228Z,12.20
2018-03-11T07:55:59.494Z,13.20
2018-03-11T07:56:59.428Z,13.10
2018-03-11T07:58:52.712Z,13.10
2018-03-11T07:59:52.628Z,13.60
2018-03-11T08:01:45.934Z,12.10
2018-03-11T08:02:45.831Z,12.20
2018-03-11T08:04:39.220Z,12.00
2018-03-11T08:05:39.025Z,11.70
2018-03-11T08:07:32.315Z,12.00
2018-03-11T08:08:32.229Z,11.30
2018-03-11T08:10:25.495Z,12.00
2018-03-11T08:11:25.428Z,11.40
2018-03-11T08:13:18.714Z,14.00
2018-03-11T08:14:18.628Z,11.80
2018-03-11T08:16:12.003Z,13.50
2018-03-11T08:17:11.828Z,14.00
2018-03-11T08:19:05.223Z,12.90
2018-03-11T08:20:05.031Z,11.30
2018-03-11T08:21:58.296Z,13.00
2018-03-11T08:22:58.231Z,13.60
2018-03-11T08:24:51.516Z,12.20
2018-03-11T08:25:51.463Z,12.30
2018-03-11T08:27:44.716Z,13.70
2018-03-11T08:28:44.631Z,11.90
2018-03-11T08:30:37.897Z,14.10
2018-03-11T08:31:37.832Z,14.90
2018-03-11T08:33:31.116Z,14.40
2018-03-11T08:34:31.035Z,13.70
2018-03-11T08:36:24.302Z,13.90
2018-03-11T08:37:24.234Z,13.90
2018-03-11T08:39:17.523Z,12.60
2018-03-11T08:40:17.439Z,14.00
2018-03-11T08:42:10.707Z,14.00
2018-03-11T08:43:10.640Z,13.70
2018-03-11T08:45:04.033Z,13.40
2018-03-11T08:46:03.843Z,16.80
2018-03-11T08:47:57.130Z,14.60
2018-03-11T08:48:57.045Z,12.80
2018-03-11T08:50:50.317Z,15.20
2018-03-11T08:51:50.249Z,14.50
2018-03-11T08:53:43.548Z,13.40
2018-03-11T08:54:43.448Z,15.60
2018-03-11T08:56:36.709Z,13.90
2018-03-11T08:57:36.645Z,13.70
2018-03-11T08:59:29.934Z,14.70
2018-03-11T09:00:29.845Z,14.60
2018-03-11T09:02:23.223Z,16.50
2018-03-11T09:03:23.049Z,15.20
2018-03-11T09:05:16.342Z,14.00
2018-03-11T09:06:16.250Z,13.80
2018-03-11T09:08:09.653Z,15.00
2018-03-11T09:09:09.460Z,14.90
2018-03-11T09:11:02.730Z,16.00
2018-03-11T09:12:02.662Z,15.80
2018-03-11T09:13:55.954Z,14.90
2018-03-11T09:14:55.869Z,15.30
2018-03-11T09:16:49.131Z,13.80
2018-03-11T09:17:49.064Z,14.40
2018-03-11T09:19:42.363Z,14.90
2018-03-11T09:20:42.279Z,14.30
2018-03-11T09:22:35.547Z,15.80
2018-03-11T09:23:35.487Z,17.10
2018-03-11T09:25:28.876Z,14.80
2018-03-11T09:26:28.685Z,13.50
2018-03-11T09:28:21.956Z,13.70
2018-03-11T09:29:21.891Z,13.90
2018-03-11T09:31:15.183Z,13.10
2018-03-11T09:32:15.096Z,13.30
2018-03-11T09:34:08.387Z,14.30
2018-03-11T09:35:08.305Z,14.20
2018-03-11T09:37:01.566Z,15.00
2018-03-11T09:38:01.501Z,13.90
2018-03-11T09:39:54.791Z,13.40
2018-03-11T09:40:54.703Z,13.50
2018-03-11T09:42:48.087Z,13.30
2018-03-11T09:43:47.916Z,13.90
2018-03-11T09:45:41.211Z,13.30
2018-03-11T09:46:41.127Z,14.70
2018-03-11T09:48:34.504Z,11.60
2018-03-11T09:49:34.336Z,10.50
2018-03-11T09:51:27.620Z,13.30
2018-03-11T09:52:27.542Z,12.20
2018-03-11T09:54:20.814Z,13.00
2018-03-11T09:55:20.751Z,10.20
2018-03-11T09:57:14.038Z,11.80
2018-03-11T09:58:13.949Z,11.30
2018-03-11T10:00:07.223Z,13.30
2018-03-11T10:01:07.159Z,12.80
2018-03-11T10:03:00.455Z,11.60
2018-03-11T10:04:00.367Z,10.60
2018-03-11T10:05:53.666Z,11.50
2018-03-11T10:06:53.574Z,10.10
2018-03-11T10:08:46.845Z,11.30
2018-03-11T10:09:46.780Z,11.60
2018-03-11T10:11:40.072Z,8.90
2018-03-11T10:12:39.989Z,9.80
2018-03-11T10:14:33.258Z,10.00
2018-03-11T10:15:33.196Z,11.50
2018-03-11T10:17:26.486Z,11.30
2018-03-11T10:18:26.404Z,12.40
2018-03-11T10:20:19.781Z,11.60
2018-03-11T10:21:19.611Z,11.10
2018-03-11T10:23:12.900Z,9.70
2018-03-11T10:24:12.820Z,11.60
2018-03-11T10:26:06.197Z,10.30
2018-03-11T10:27:06.031Z,10.50
2018-03-11T10:28:59.321Z,10.10
2018-03-11T10:29:59.240Z,10.00
2018-03-11T10:31:52.518Z,11.20
2018-03-11T10:32:52.456Z,11.00
2018-03-11T10:34:45.745Z,9.80
2018-03-11T10:35:45.663Z,9.30
2018-03-11T10:37:38.954Z,9.10
2018-03-11T10:38:38.873Z,9.90
2018-03-11T10:40:32.145Z,10.00
2018-03-11T10:41:32.081Z,9.90
2018-03-11T10:43:25.520Z,7.80
2018-03-11T10:44:25.300Z,8.60
2018-03-11T10:46:18.568Z,9.10
2018-03-11T10:47:18.505Z,10.00
2018-03-11T10:49:12.841Z,8.50
2018-03-11T10:50:12.717Z,8.70
2018-03-11T10:52:06.009Z,7.80
2018-03-11T10:53:05.931Z,8.70
2018-03-11T10:54:59.329Z,9.70
2018-03-11T10:55:59.143Z,9.60
2018-03-11T10:57:52.436Z,7.70
2018-03-11T10:58:52.357Z,8.20
2018-03-11T11:00:45.631Z,10.20
2018-03-11T11:01:45.570Z,9.30
2018-03-11T11:03:38.863Z,8.50
2018-03-11T11:04:38.782Z,6.80
2018-03-11T11:06:32.050Z,9.00
2018-03-11T11:07:31.984Z,7.30
2018-03-11T11:09:25.280Z,7.00
2018-03-11T11:10:25.197Z,6.30
2018-03-11T11:12:18.477Z,8.20
2018-03-11T11:13:18.413Z,7.20
2018-03-11T11:15:11.710Z,6.40
2018-03-11T11:16:11.628Z,6.20
2018-03-11T11:18:04.924Z,7.90
2018-03-11T11:19:04.840Z,5.70
2018-03-11T11:20:58.124Z,6.80
2018-03-11T11:21:58.056Z,5.90
2018-03-11T11:23:51.354Z,5.40
2018-03-11T11:24:51.274Z,7.00
2018-03-11T11:26:44.612Z,5.80
2018-03-11T11:27:44.492Z,5.10
2018-03-11T11:29:37.880Z,3.80
2018-03-11T11:30:37.695Z,4.30
2018-03-11T11:32:30.973Z,3.40
2018-03-11T11:33:30.909Z,2.90
2018-03-11T11:35:24.206Z,4.00
2018-03-11T11:36:24.125Z,5.00
2018-03-11T11:38:17.422Z,4.00
2018-03-11T11:39:17.341Z,4.30
2018-03-11T11:41:10.621Z,2.50
2018-03-11T11:42:10.557Z,2.50
2018-03-11T11:44:03.956Z,3.20
2018-03-11T11:45:03.776Z,3.70
2018-03-11T11:46:57.044Z,2.20
2018-03-11T11:47:56.974Z,2.50
2018-03-11T11:49:50.325Z,3.20
2018-03-11T11:50:50.243Z,4.10
2018-03-11T11:52:43.521Z,2.90
2018-03-11T11:53:43.460Z,3.90
2018-03-11T11:55:36.758Z,3.00
2018-03-11T11:56:36.676Z,3.00
2018-03-11T11:58:29.977Z,3.30
2018-03-11T11:59:29.895Z,3.60
2018-03-11T12:01:23.175Z,3.20
2018-03-11T12:02:23.114Z,2.80
2018-03-11T12:04:16.512Z,3.30
2018-03-11T12:05:16.332Z,3.20
2018-03-11T12:07:09.715Z,3.30
2018-03-11T12:08:09.552Z,2.90
2018-03-11T12:10:02.847Z,3.60
2018-03-11T12:11:02.770Z,5.40
2018-03-11T12:12:56.049Z,4.10
2018-03-11T12:13:55.988Z,3.30
2018-03-11T12:15:49.288Z,3.20
2018-03-11T12:16:49.211Z,4.70
2018-03-11T12:18:42.497Z,4.10
2018-03-11T12:19:42.416Z,4.50
2018-03-11T12:21:35.687Z,3.40
2018-03-11T12:22:35.672Z,4.40
2018-03-11T12:24:28.913Z,5.40
2018-03-11T12:25:28.828Z,4.70
2018-03-11T12:27:22.105Z,2.90
2018-03-11T12:28:22.044Z,2.90
2018-03-11T12:30:15.331Z,2.90
2018-03-11T12:31:15.251Z,3.50
2018-03-11T12:33:08.540Z,4.80
2018-03-11T12:34:08.458Z,2.90
2018-03-11T12:36:01.746Z,3.70
2018-03-11T12:37:01.664Z,2.80
2018-03-11T12:38:55.067Z,3.90
2018-03-11T12:39:54.874Z,3.40
2018-03-11T12:41:48.256Z,4.10
2018-03-11T12:42:48.079Z,3.30
2018-03-11T12:44:41.374Z,4.90
2018-03-11T12:45:41.287Z,3.30
2018-03-11T12:47:34.668Z,2.40
2018-03-11T12:48:34.492Z,2.60
2018-03-11T12:50:27.782Z,4.00
2018-03-11T12:51:27.703Z,3.60
2018-03-11T12:53:21.008Z,4.60
2018-03-11T12:54:20.957Z,3.80
2018-03-11T12:56:14.181Z,3.10
2018-03-11T12:57:14.118Z,5.50
2018-03-11T12:59:07.518Z,3.10
2018-03-11T13:00:07.357Z,2.90
2018-03-11T13:02:00.615Z,4.70
2018-03-11T13:03:00.552Z,5.10
2018-03-11T13:04:53.835Z,3.10
2018-03-11T13:05:53.756Z,2.90
2018-03-11T13:07:47.138Z,3.40
2018-03-11T13:08:46.966Z,2.80
2018-03-11T13:10:40.249Z,3.60
2018-03-11T13:11:40.171Z,4.00
2018-03-11T13:13:33.465Z,3.50
2018-03-11T13:14:33.384Z,4.10
2018-03-11T13:16:26.656Z,3.10
2018-03-11T13:17:26.593Z,2.90
2018-03-11T13:19:19.995Z,2.90
2018-03-11T13:20:19.834Z,3.10
2018-03-11T13:22:12.606Z,2.90
2018-03-11T13:23:12.542Z,3.30
2018-03-11T13:25:05.833Z,3.40
2018-03-11T13:26:05.754Z,3.00
2018-03-11T13:27:59.023Z,5.60
2018-03-11T13:28:58.960Z,5.70
2018-03-11T13:30:52.323Z,3.70
2018-03-11T13:31:52.242Z,4.40
2018-03-11T13:33:45.561Z,4.00
2018-03-11T13:34:45.460Z,3.70
2018-03-11T13:36:38.844Z,2.90
2018-03-11T13:37:38.665Z,3.40
2018-03-11T13:39:31.955Z,3.00
2018-03-11T13:40:31.877Z,3.30
2018-03-11T13:42:25.259Z,3.20
2018-03-11T13:43:25.086Z,3.70
2018-03-11T13:45:18.371Z,3.70
2018-03-11T13:46:18.292Z,4.20
2018-03-11T13:48:11.561Z,3.10
2018-03-11T13:49:11.501Z,2.70
2018-03-11T13:51:04.903Z,4.00
2018-03-11T13:52:04.711Z,2.90
2018-03-11T13:53:58.132Z,2.60
2018-03-11T13:54:57.919Z,3.20
2018-03-11T13:56:51.304Z,5.60
2018-03-11T13:57:51.130Z,4.20
2018-03-11T13:59:44.406Z,3.10
2018-03-11T14:00:44.385Z,3.30
2018-03-11T14:02:37.596Z,4.10
2018-03-11T14:03:37.537Z,3.40
2018-03-11T14:05:30.938Z,3.50
2018-03-11T14:06:30.747Z,2.90
2018-03-11T14:08:24.015Z,3.00
2018-03-11T14:09:23.954Z,3.50
2018-03-11T14:11:17.243Z,2.90
2018-03-11T14:12:17.168Z,2.80
2018-03-11T14:14:10.452Z,3.10
2018-03-11T14:15:10.374Z,3.20
2018-03-11T14:17:03.759Z,3.80
2018-03-11T14:18:03.584Z,4.30
2018-03-11T14:19:56.877Z,4.00
2018-03-11T14:20:56.796Z,4.70
2018-03-11T14:22:50.179Z,3.20
2018-03-11T14:23:50.005Z,3.80
2018-03-11T14:25:43.294Z,3.80
2018-03-11T14:26:43.259Z,3.80
2018-03-11T14:28:36.485Z,6.60
2018-03-11T14:29:36.425Z,7.90
2018-03-11T14:31:29.722Z,4.70
2018-03-11T14:32:29.642Z,3.70
2018-03-11T14:34:22.931Z,4.60
2018-03-11T14:35:22.854Z,3.20
2018-03-11T14:37:16.122Z,2.90
2018-03-11T14:38:16.063Z,3.90
2018-03-11T14:40:09.464Z,2.90
2018-03-11T14:41:09.271Z,4.00
2018-03-11T14:43:02.654Z,3.00
2018-03-11T14:44:02.481Z,4.50
2018-03-11T14:45:55.883Z,4.20
2018-03-11T14:46:55.689Z,2.40
2018-03-11T14:48:49.082Z,2.60
2018-03-11T14:49:48.912Z,3.00
2018-03-11T14:51:42.203Z,3.60
2018-03-11T14:52:42.125Z,2.30
2018-03-11T14:54:35.421Z,2.60
2018-03-11T14:55:35.358Z,2.20
2018-03-11T14:57:28.620Z,2.20
2018-03-11T14:58:28.561Z,2.80
2018-03-11T15:00:21.961Z,2.80
2018-03-11T15:01:21.767Z,2.60
2018-03-11T15:03:15.039Z,2.80
2018-03-11T15:04:14.977Z,2.60
2018-03-11T15:06:08.377Z,2.40
2018-03-11T15:07:08.251Z,2.30
2018-03-11T15:09:01.518Z,2.60
2018-03-11T15:10:01.457Z,3.40
2018-03-11T15:11:54.861Z,4.80
2018-03-11T15:12:54.668Z,2.90
2018-03-11T15:14:47.958Z,3.10
2018-03-11T15:15:47.880Z,3.80
2018-03-11T15:17:41.145Z,3.50
2018-03-11T15:18:41.086Z,2.30
2018-03-11T15:20:34.505Z,2.80
2018-03-11T15:21:34.298Z,2.60
2018-03-11T15:23:27.676Z,2.20
2018-03-11T15:24:27.501Z,2.60
2018-03-11T15:26:20.796Z,5.80
2018-03-11T15:27:20.707Z,2.10
2018-03-11T15:29:13.978Z,2.70
2018-03-11T15:30:13.918Z,3.60
2018-03-11T15:32:07.200Z,2.30
2018-03-11T15:33:07.147Z,2.50
2018-03-11T15:35:00.524Z,3.90
2018-03-11T15:36:00.329Z,2.30
2018-03-11T15:37:53.712Z,3.80
2018-03-11T15:38:53.535Z,2.20
2018-03-11T15:40:46.824Z,2.60
2018-03-11T15:41:46.743Z,2.50
2018-03-11T15:43:40.014Z,2.90
2018-03-11T15:44:39.947Z,2.30
2018-03-11T15:46:33.250Z,5.00
2018-03-11T15:47:33.161Z,2.40
2018-03-11T15:49:26.442Z,3.80
2018-03-11T15:50:26.383Z,2.90
2018-03-11T15:52:19.676Z,2.30
2018-03-11T15:53:19.595Z,2.50
2018-03-11T15:55:12.884Z,4.40
2018-03-11T15:56:12.805Z,2.50
2018-03-11T15:58:06.188Z,2.90
2018-03-11T15:59:06.012Z,2.70
2018-03-11T16:00:59.298Z,2.40
2018-03-11T16:01:59.219Z,2.40
2018-03-11T16:03:52.490Z,2.80
2018-03-11T16:04:52.423Z,3.50
2018-03-11T16:06:45.841Z,2.80
2018-03-11T16:07:45.622Z,2.60
2018-03-11T16:09:38.890Z,3.10
2018-03-11T16:10:38.828Z,2.80
2018-03-11T16:12:32.115Z,4.50
2018-03-11T16:13:32.037Z,3.90
2018-03-11T16:15:25.319Z,4.50
2018-03-11T16:16:25.241Z,3.10
2018-03-11T16:18:18.509Z,3.80
2018-03-11T16:19:18.448Z,5.30
2018-03-11T16:21:11.734Z,4.70
2018-03-11T16:22:11.654Z,5.30
2018-03-11T16:24:05.038Z,3.10
2018-03-11T16:25:04.861Z,3.40
2018-03-11T16:26:58.139Z,4.80
2018-03-11T16:27:58.057Z,3.50
2018-03-11T16:29:51.327Z,3.60
2018-03-11T16:30:51.269Z,5.70
2018-03-11T16:32:44.551Z,3.80
2018-03-11T16:33:44.472Z,3.90
2018-03-11T16:35:38.378Z,5.50
2018-03-11T16:36:37.991Z,5.80
2018-03-11T16:38:31.259Z,7.20
2018-03-11T16:39:31.198Z,4.90
2018-03-11T16:41:24.498Z,6.60
2018-03-11T16:42:24.404Z,3.20
2018-03-11T16:44:17.673Z,3.70
2018-03-11T16:45:17.612Z,3.90
2018-03-11T16:47:11.010Z,4.50
2018-03-11T16:48:10.813Z,4.40
2018-03-11T16:50:04.084Z,3.50
2018-03-11T16:51:04.029Z,5.00
2018-03-11T16:52:57.319Z,3.40
2018-03-11T16:53:57.240Z,4.60
2018-03-11T16:55:50.528Z,5.50
2018-03-11T16:56:50.482Z,4.40
2018-03-11T16:58:43.827Z,5.00
2018-03-11T16:59:43.652Z,4.50
2018-03-11T17:01:36.937Z,3.90
2018-03-11T17:02:36.857Z,4.80
2018-03-11T17:04:30.125Z,3.70
2018-03-11T17:05:30.064Z,5.20
2018-03-11T17:07:23.348Z,4.30
2018-03-11T17:08:23.268Z,4.30
2018-03-11T17:10:16.535Z,5.20
2018-03-11T17:11:16.472Z,5.00
2018-03-11T17:13:09.758Z,4.80
2018-03-11T17:14:09.684Z,5.00
2018-03-11T17:16:02.963Z,4.90
2018-03-11T17:17:02.883Z,5.50
2018-03-11T17:18:56.265Z,5.30
2018-03-11T17:19:56.097Z,5.20
2018-03-11T17:21:49.406Z,4.40
2018-03-11T17:22:49.328Z,5.40
2018-03-11T17:24:42.602Z,4.40
2018-03-11T17:25:42.579Z,6.00
2018-03-11T17:27:35.828Z,5.70
2018-03-11T17:28:35.747Z,6.40
2018-03-11T17:30:29.129Z,5.10
2018-03-11T17:31:28.953Z,6.70
2018-03-11T17:33:22.350Z,4.40
2018-03-11T17:34:22.169Z,5.80
2018-03-11T17:36:15.469Z,6.20
2018-03-11T17:37:15.389Z,4.70
2018-03-11T17:39:08.666Z,5.90
2018-03-11T17:40:08.600Z,5.60
2018-03-11T17:42:01.897Z,4.50
2018-03-11T17:43:01.813Z,4.80
2018-03-11T17:44:55.124Z,5.90
2018-03-11T17:45:55.018Z,5.00
2018-03-11T17:47:48.415Z,6.60
2018-03-11T17:48:48.229Z,6.30
2018-03-11T17:50:41.497Z,6.20
2018-03-11T17:51:41.433Z,5.00
2018-03-11T17:53:34.725Z,6.10
2018-03-11T17:54:34.643Z,5.70
2018-03-11T17:56:27.929Z,6.00
2018-03-11T17:57:27.848Z,5.40
2018-03-11T17:59:21.135Z,5.50
2018-03-11T18:00:21.061Z,6.10
2018-03-11T18:02:14.353Z,5.30
2018-03-11T18:03:14.273Z,6.00
2018-03-11T18:05:07.654Z,6.20
2018-03-11T18:06:07.485Z,7.10
2018-03-11T18:08:00.779Z,6.80
2018-03-11T18:09:00.700Z,8.00
2018-03-11T18:10:53.970Z,5.10
2018-03-11T18:11:53.907Z,9.30
2018-03-11T18:13:47.305Z,6.60
2018-03-11T18:14:47.119Z,7.30
2018-03-11T18:16:40.402Z,6.70
2018-03-11T18:17:40.322Z,6.90
2018-03-11T18:19:33.592Z,6.40
2018-03-11T18:20:33.529Z,6.30
2018-03-11T18:22:26.827Z,6.70
2018-03-11T18:23:26.739Z,8.80
2018-03-11T18:25:20.005Z,5.90
2018-03-11T18:26:19.972Z,6.70
2018-03-11T18:28:13.222Z,7.70
2018-03-11T18:29:13.143Z,6.60
2018-03-11T18:31:06.416Z,9.90
2018-03-11T18:32:06.380Z,8.50
2018-03-11T18:33:59.643Z,8.80
2018-03-11T18:34:59.560Z,8.00
2018-03-11T18:36:52.843Z,7.40
2018-03-11T18:37:52.764Z,9.20
2018-03-11T18:39:46.036Z,7.60
2018-03-11T18:40:45.973Z,8.10
2018-03-11T18:42:39.405Z,9.40
2018-03-11T18:43:39.323Z,10.60
2018-03-11T18:45:32.711Z,8.90
2018-03-11T18:46:32.532Z,7.10
2018-03-11T18:48:25.824Z,9.70
2018-03-11T18:49:25.739Z,8.50
2018-03-11T18:51:19.005Z,9.00
2018-03-11T18:52:18.940Z,12.40